Elk Creek, NY

6:15 PM EDT on August 28, 2015 (GMT -0400)
Griffiss | Change Station
CLOSE
Current Station
Airport
Location: Rome,
Elevation: 505 ft
Nearby Weather Stations

Elev 505 ft 43.23 °N, 75.41 °W | Updated 22 minutes ago

Overcast
Overcast
71 °F
Feels Like 71 °F
N
4
Wind Variable Wind from WNW

Today
High -- | Low -- °F
--% Chance of Precip.
Yesterday
High -- | Low -- °F
Precip. -- in
6:19 AM 7:40 PM
Waxing Gibbous, 99% visible
Pressure 30.17 in
Visibility 10.0 miles
Clouds Overcast 5500 ft
Dew Point 57 °F
Humidity 61%
Rainfall 0.00 in
Snow Depth Not available.
UV 0 out of 12
Pollen 9.10 out of 12
Air Quality Not available.
Flu Activity Not available.
METAR KRME 282153Z 29003KT 10SM OVC055 22/14 A3018 RMK AO2 SLP216 T02170139

More Conditions Fewer Conditions

Pressure 30.17 in
Visibility 10.0 miles
Clouds Overcast 5500 ft
Dew Point 57 °F
Humidity 61%
Rainfall 0.00 in
Snow Depth Not available.
UV 0 out of 12
Pollen 9.10 out of 12
Air Quality Not available.
Flu Activity Not available.
METAR KRME 282153Z 29003KT 10SM OVC055 22/14 A3018 RMK AO2 SLP216 T02170139

More Conditions Fewer Conditions

10-Day Weather Forecast

Almanac

Astronomy

Aug. 28, 2015 Rise Set
Actual Time 6:19 AM EDT 7:40 PM EDT
Civil Twilight 5:50 AM EDT 8:09 PM EDT
Nautical Twilight 5:15 AM EDT 8:45 PM EDT
Astronomical Twilight 4:37 AM EDT 9:22 PM EDT
Moon 6:52 PM EDT 4:50 AM EDT
Length of Visible Light 14h 19m
Length of Day
13h 21m
Tomorrow will be 2m 44s shorter.
Waxing Gibbous, 99% of the Moon is Illuminated
Today
Waxing Gibbous
Aug 29
Full
Sep 5
Last Quarter
Sep 13
New
Sep 21
First Quarter

Today's Extremes

State Highs State Lows

Community

WunderPhotos

Upload Photos

1,850,515 photos uploaded!

Nearby

Air Quality

  Air Quality AQ Index Pollutant
Yesterday Good
OZONE
Yesterday Good
PM2.5
Friday Good
OZONE
Friday Good
PM2.5
Saturday Good
PM2.5
Saturday Good
OZONE
Sunday Moderate
PM2.5
Sunday Good
OZONE
Monday Moderate
PM2.5
Monday Good
OZONE

Snow Depth

Station Depth Elevation
No new snow has been reported.

Earthquake Activity

City Distance Mag. Time & Date
No recent earthquake activity has been reported nearby.
Minimum magnitude displayed is 2.5.

Coastal Water Temperatures

Place Temperature
No Stations Reporting

Nearby Weather Stations